createdAt,value
2017-10-22T00:00:53.986Z,97.70
2017-10-22T00:03:21.855Z,97.50
2017-10-22T00:05:49.722Z,97.30
2017-10-22T00:08:17.459Z,97.20
2017-10-22T00:10:45.184Z,97.10
2017-10-22T00:13:13.682Z,97.10
2017-10-22T00:15:42.188Z,97.00
2017-10-22T00:18:10.082Z,97.00
2017-10-22T00:20:37.967Z,97.10
2017-10-22T00:23:05.704Z,97.00
2017-10-22T00:25:33.439Z,97.00
2017-10-22T00:28:01.243Z,97.20
2017-10-22T00:30:28.994Z,97.40
2017-10-22T00:32:56.732Z,97.60
2017-10-22T00:35:24.490Z,97.60
2017-10-22T00:37:52.246Z,97.70
2017-10-22T00:40:20.171Z,97.70
2017-10-22T00:42:48.038Z,97.70
2017-10-22T00:45:15.818Z,97.60
2017-10-22T00:47:43.595Z,97.50
2017-10-22T00:50:11.347Z,97.50
2017-10-22T00:52:39.204Z,97.30
2017-10-22T00:55:07.026Z,97.30
2017-10-22T00:57:34.936Z,97.10
2017-10-22T01:00:02.807Z,97.00
2017-10-22T01:02:30.676Z,96.90
2017-10-22T01:04:58.537Z,96.70
2017-10-22T01:07:26.407Z,96.70
2017-10-22T01:09:54.272Z,96.60
2017-10-22T01:12:22.097Z,96.60
2017-10-22T01:14:49.899Z,96.50
2017-10-22T01:17:17.654Z,96.40
2017-10-22T01:19:45.428Z,96.30
2017-10-22T01:22:13.229Z,96.30
2017-10-22T01:24:41.885Z,96.20
2017-10-22T01:27:09.854Z,96.10
2017-10-22T01:29:37.623Z,96.20
2017-10-22T01:32:05.435Z,96.10
2017-10-22T01:34:33.993Z,96.00
2017-10-22T01:37:02.575Z,95.90
2017-10-22T01:39:30.363Z,95.90
2017-10-22T01:41:59.005Z,96.00
2017-10-22T01:44:26.870Z,96.00
2017-10-22T01:46:54.841Z,95.90
2017-10-22T01:49:22.659Z,95.80
2017-10-22T01:51:50.575Z,95.90
2017-10-22T01:54:18.449Z,95.80
2017-10-22T01:56:46.413Z,96.10
2017-10-22T01:59:14.284Z,95.90
2017-10-22T02:01:42.251Z,95.90
2017-10-22T02:04:10.116Z,95.80
2017-10-22T02:06:37.985Z,95.70
2017-10-22T02:09:05.852Z,95.90
2017-10-22T02:11:33.720Z,95.80
2017-10-22T02:14:01.587Z,95.40
2017-10-22T02:16:29.454Z,95.40
2017-10-22T02:18:57.215Z,95.40
2017-10-22T02:21:24.982Z,95.10
2017-10-22T02:23:52.852Z,95.20
2017-10-22T02:26:20.611Z,95.20
2017-10-22T02:28:48.347Z,95.10
2017-10-22T02:31:16.248Z,94.60
2017-10-22T02:33:44.115Z,94.70
2017-10-22T02:36:11.985Z,94.60
2017-10-22T02:38:39.738Z,94.50
2017-10-22T02:41:07.614Z,94.50
2017-10-22T02:43:35.481Z,94.30
2017-10-22T02:46:03.350Z,94.50
2017-10-22T02:48:31.217Z,94.50
2017-10-22T02:50:59.752Z,94.80
2017-10-22T02:53:27.471Z,94.80
2017-10-22T02:55:55.345Z,94.60
2017-10-22T02:58:23.072Z,94.50
2017-10-22T03:00:50.970Z,94.10
2017-10-22T03:03:18.830Z,93.90
2017-10-22T03:05:46.698Z,93.80
2017-10-22T03:08:14.565Z,94.00
2017-10-22T03:10:42.311Z,94.20
2017-10-22T03:13:10.196Z,94.10
2017-10-22T03:15:38.066Z,94.00
2017-10-22T03:18:05.931Z,94.10
2017-10-22T03:20:33.800Z,94.00
2017-10-22T03:23:01.666Z,94.20
2017-10-22T03:25:29.533Z,94.20
2017-10-22T03:27:57.401Z,94.20
2017-10-22T03:30:25.270Z,94.20
2017-10-22T03:32:53.143Z,94.20
2017-10-22T03:35:21.003Z,94.30
2017-10-22T03:37:48.872Z,94.40
2017-10-22T03:40:16.738Z,94.40
2017-10-22T03:42:44.466Z,94.50
2017-10-22T03:45:12.187Z,94.50
2017-10-22T03:47:40.034Z,94.50
2017-10-22T03:50:07.774Z,94.20
2017-10-22T03:52:35.518Z,94.50
2017-10-22T03:55:03.280Z,94.40
2017-10-22T03:57:31.196Z,94.20
2017-10-22T03:59:58.929Z,94.30
2017-10-22T04:02:26.659Z,94.30
2017-10-22T04:04:55.160Z,94.50
2017-10-22T04:07:24.364Z,94.50
2017-10-22T04:09:53.100Z,94.80
2017-10-22T04:12:20.826Z,94.80
2017-10-22T04:14:48.729Z,94.70
2017-10-22T04:17:16.595Z,94.80
2017-10-22T04:19:44.361Z,94.90
2017-10-22T04:22:12.107Z,94.80
2017-10-22T04:24:39.827Z,94.80
2017-10-22T04:27:08.298Z,94.80
2017-10-22T04:29:36.952Z,94.90
2017-10-22T04:32:04.756Z,94.80
2017-10-22T04:34:33.374Z,94.80
2017-10-22T04:37:01.093Z,94.80
2017-10-22T04:39:29.599Z,94.60
2017-10-22T04:41:57.319Z,94.60
2017-10-22T04:44:25.804Z,94.40
2017-10-22T04:46:53.515Z,94.60
2017-10-22T04:49:21.323Z,94.30
2017-10-22T04:51:49.190Z,94.10
2017-10-22T04:54:16.942Z,94.10
2017-10-22T04:56:45.541Z,94.00
2017-10-22T04:59:13.406Z,94.00
2017-10-22T05:01:41.275Z,94.30
2017-10-22T05:04:09.142Z,94.40
2017-10-22T05:06:37.111Z,94.50
2017-10-22T05:09:04.978Z,94.60
2017-10-22T05:11:32.854Z,94.30
2017-10-22T05:14:00.638Z,94.30
2017-10-22T05:16:28.390Z,94.30
2017-10-22T05:18:56.112Z,94.20
2017-10-22T05:21:24.008Z,94.20
2017-10-22T05:23:51.879Z,94.30
2017-10-22T05:26:24.169Z,94.20
2017-10-22T05:28:53.960Z,94.30
2017-10-22T05:34:19.998Z,94.60
2017-10-22T05:36:49.900Z,94.60
2017-10-22T05:39:19.318Z,94.60
2017-10-22T05:41:47.031Z,94.80
2017-10-22T05:44:15.502Z,94.60
2017-10-22T05:46:44.055Z,94.60
2017-10-22T05:49:11.768Z,94.60
2017-10-22T05:51:39.581Z,94.30
2017-10-22T05:54:07.449Z,94.50
2017-10-22T05:56:35.315Z,94.30
2017-10-22T05:59:03.185Z,94.40
2017-10-22T06:01:31.054Z,94.00
2017-10-22T06:03:58.917Z,94.00
2017-10-22T06:06:26.784Z,93.90
2017-10-22T06:08:54.653Z,93.70
2017-10-22T06:11:22.400Z,93.60
2017-10-22T06:13:50.135Z,96.80
2017-10-22T06:16:17.923Z,94.50
2017-10-22T06:18:45.818Z,92.70
2017-10-22T06:21:13.682Z,92.50
2017-10-22T06:23:41.427Z,92.80
2017-10-22T06:26:09.431Z,92.50
2017-10-22T06:28:37.282Z,92.90
2017-10-22T06:31:05.151Z,92.40
2017-10-22T06:33:33.022Z,92.60
2017-10-22T06:36:00.885Z,92.90
2017-10-22T06:38:28.752Z,92.70
2017-10-22T06:40:56.548Z,92.30
2017-10-22T06:43:24.319Z,92.40
2017-10-22T06:45:53.174Z,92.50
2017-10-22T06:48:21.145Z,92.50
2017-10-22T06:50:49.019Z,92.50
2017-10-22T06:53:16.779Z,92.40
2017-10-22T06:55:44.566Z,92.20
2017-10-22T06:58:12.363Z,92.40
2017-10-22T07:00:46.434Z,92.30
2017-10-22T07:03:14.492Z,92.30
2017-10-22T07:05:42.362Z,92.00
2017-10-22T07:08:10.205Z,92.10
2017-10-22T07:10:37.965Z,91.90
2017-10-22T07:13:05.742Z,92.10
2017-10-22T07:15:33.482Z,92.20
2017-10-22T07:18:01.275Z,92.00
2017-10-22T07:20:29.004Z,92.30
2017-10-22T07:22:56.758Z,92.00
2017-10-22T07:25:25.251Z,91.70
2017-10-22T07:27:53.067Z,91.70
2017-10-22T07:30:20.934Z,92.00
2017-10-22T07:32:48.802Z,92.00
2017-10-22T07:35:16.602Z,92.20
2017-10-22T07:37:45.457Z,91.90
2017-10-22T07:40:13.424Z,91.80
2017-10-22T07:42:41.297Z,92.10
2017-10-22T07:45:09.158Z,91.90
2017-10-22T07:47:37.024Z,92.10
2017-10-22T07:50:04.893Z,91.80
2017-10-22T07:52:32.760Z,91.80
2017-10-22T07:55:00.502Z,92.00
2017-10-22T07:57:28.234Z,91.70
2017-10-22T07:59:56.773Z,91.70
2017-10-22T08:02:24.643Z,91.70
2017-10-22T08:04:52.508Z,91.90
2017-10-22T08:07:20.254Z,91.50
2017-10-22T08:09:48.138Z,91.80
2017-10-22T08:12:16.007Z,91.80
2017-10-22T08:14:43.875Z,91.90
2017-10-22T08:17:11.741Z,91.50
2017-10-22T08:19:39.613Z,91.40
2017-10-22T08:22:07.346Z,91.00
2017-10-22T08:24:35.240Z,91.40
2017-10-22T08:27:02.981Z,90.90
2017-10-22T08:29:30.771Z,90.70
2017-10-22T08:31:58.508Z,91.30
2017-10-22T08:34:26.293Z,91.30
2017-10-22T08:36:54.166Z,91.30
2017-10-22T08:39:22.035Z,91.10
2017-10-22T08:41:49.917Z,91.10
2017-10-22T08:44:17.771Z,91.20
2017-10-22T08:46:45.739Z,90.80
2017-10-22T08:49:14.447Z,91.00
2017-10-22T08:51:42.292Z,91.00
2017-10-22T08:54:10.263Z,91.20
2017-10-22T08:56:38.129Z,91.30
2017-10-22T08:59:05.997Z,91.80
2017-10-22T09:01:33.864Z,91.60
2017-10-22T09:04:01.655Z,91.70
2017-10-22T09:06:29.496Z,91.50
2017-10-22T09:08:57.364Z,91.60
2017-10-22T09:11:25.231Z,91.60
2017-10-22T09:13:53.034Z,91.00
2017-10-22T09:16:21.565Z,91.40
2017-10-22T09:18:49.345Z,91.40
2017-10-22T09:21:17.316Z,91.00
2017-10-22T09:23:45.181Z,91.00
2017-10-22T09:26:13.049Z,90.90
2017-10-22T09:28:40.916Z,91.30
2017-10-22T09:31:08.885Z,91.60
2017-10-22T09:33:36.754Z,91.10
2017-10-22T09:36:04.542Z,91.10
2017-10-22T09:38:32.325Z,91.10
2017-10-22T09:41:00.970Z,91.20
2017-10-22T09:43:28.837Z,91.20
2017-10-22T09:45:56.705Z,91.10
2017-10-22T09:48:24.572Z,90.80
2017-10-22T09:50:52.439Z,91.00
2017-10-22T09:53:20.306Z,91.40
2017-10-22T09:55:48.173Z,91.10
2017-10-22T09:58:16.247Z,90.80
2017-10-22T10:00:44.216Z,90.80
2017-10-22T10:03:12.085Z,90.70
2017-10-22T10:05:39.952Z,91.50
2017-10-22T10:08:07.819Z,91.60
2017-10-22T10:10:35.683Z,90.60
2017-10-22T10:13:03.458Z,90.90
2017-10-22T10:15:31.317Z,91.10
2017-10-22T10:17:59.065Z,91.30
2017-10-22T10:20:26.857Z,90.90
2017-10-22T10:22:54.817Z,91.20
2017-10-22T10:25:22.794Z,90.90
2017-10-22T10:27:50.565Z,91.50
2017-10-22T10:30:18.423Z,91.70
2017-10-22T10:32:46.593Z,91.90
2017-10-22T10:35:14.463Z,91.50
2017-10-22T10:37:42.435Z,91.80
2017-10-22T10:40:11.885Z,91.30
2017-10-22T10:42:40.627Z,91.50
2017-10-22T10:45:08.495Z,91.30
2017-10-22T10:47:36.361Z,91.60
2017-10-22T10:50:04.329Z,91.00
2017-10-22T10:52:32.301Z,91.30
2017-10-22T10:55:00.266Z,91.30
2017-10-22T10:57:28.794Z,91.30
2017-10-22T10:59:57.337Z,91.30
2017-10-22T11:02:25.301Z,91.30
2017-10-22T11:04:53.169Z,90.90
2017-10-22T11:07:21.239Z,90.80
2017-10-22T11:09:49.108Z,91.00
2017-10-22T11:12:16.975Z,90.60
2017-10-22T11:14:44.844Z,90.50
2017-10-22T11:17:12.710Z,91.20
2017-10-22T11:19:40.578Z,91.50
2017-10-22T11:22:08.445Z,90.70
2017-10-22T11:24:36.313Z,90.80
2017-10-22T11:27:04.180Z,90.80
2017-10-22T11:29:32.048Z,90.60
2017-10-22T11:31:59.914Z,90.70
2017-10-22T11:34:27.783Z,91.30
2017-10-22T11:36:55.579Z,90.60
2017-10-22T11:39:24.130Z,90.60
2017-10-22T11:41:52.013Z,90.50
2017-10-22T11:44:19.864Z,90.70
2017-10-22T11:46:47.731Z,90.60
2017-10-22T11:49:15.599Z,90.70
2017-10-22T11:51:43.468Z,90.80
2017-10-22T11:54:11.335Z,91.10
2017-10-22T11:56:39.201Z,90.50
2017-10-22T11:59:07.069Z,91.10
2017-10-22T12:01:34.936Z,92.10
2017-10-22T12:04:02.803Z,92.70
2017-10-22T12:06:30.670Z,92.60
2017-10-22T12:08:58.631Z,93.00
2017-10-22T12:11:26.441Z,92.50
2017-10-22T12:13:55.097Z,92.70
2017-10-22T12:16:22.959Z,92.70
2017-10-22T12:18:50.827Z,93.20
2017-10-22T12:21:18.694Z,93.10
2017-10-22T12:23:46.562Z,92.90
2017-10-22T12:26:14.429Z,92.80
2017-10-22T12:28:42.297Z,92.60
2017-10-22T12:31:10.162Z,92.30
2017-10-22T12:33:38.030Z,92.40
2017-10-22T12:36:05.898Z,92.40
2017-10-22T12:38:33.764Z,92.30
2017-10-22T12:41:01.633Z,92.70
2017-10-22T12:43:29.500Z,92.40
2017-10-22T12:45:57.367Z,92.30
2017-10-22T12:48:25.090Z,92.40
2017-10-22T12:50:52.897Z,92.10
2017-10-22T12:53:20.764Z,92.20
2017-10-22T12:55:48.632Z,92.30
2017-10-22T12:58:16.498Z,93.10
2017-10-22T13:00:44.298Z,92.60
2017-10-22T13:03:12.779Z,93.10
2017-10-22T13:05:41.363Z,93.40
2017-10-22T13:08:09.299Z,93.40
2017-10-22T13:10:37.172Z,93.60
2017-10-22T13:13:05.752Z,94.00
2017-10-22T13:15:33.618Z,94.00
2017-10-22T13:18:01.332Z,94.40
2017-10-22T13:20:29.251Z,94.10
2017-10-22T13:22:57.117Z,94.10
2017-10-22T13:25:24.985Z,94.30
2017-10-22T13:27:52.853Z,94.10
2017-10-22T13:30:20.722Z,93.70
2017-10-22T13:32:48.516Z,93.80
2017-10-22T13:35:17.171Z,92.70
2017-10-22T13:37:45.177Z,92.60
2017-10-22T13:40:13.827Z,92.70
2017-10-22T13:42:41.694Z,92.70
2017-10-22T13:45:09.561Z,92.90
2017-10-22T13:47:37.429Z,92.90
2017-10-22T13:50:05.301Z,92.70
2017-10-22T13:52:33.168Z,92.60
2017-10-22T13:55:01.035Z,92.30
2017-10-22T13:57:28.900Z,92.00
2017-10-22T13:59:56.771Z,92.00
2017-10-22T14:02:24.637Z,91.90
2017-10-22T14:04:52.507Z,92.20
2017-10-22T14:07:20.370Z,92.90
2017-10-22T14:09:48.235Z,92.80
2017-10-22T14:12:16.105Z,92.10
2017-10-22T14:14:43.969Z,92.00
2017-10-22T14:17:11.836Z,92.00
2017-10-22T14:19:39.704Z,92.20
2017-10-22T14:22:07.572Z,92.30
2017-10-22T14:24:35.439Z,92.80
2017-10-22T14:27:03.305Z,92.40
2017-10-22T14:29:31.195Z,92.50
2017-10-22T14:31:59.859Z,92.90
2017-10-22T14:34:27.727Z,92.90
2017-10-22T14:36:55.594Z,93.00
2017-10-22T14:39:23.463Z,93.20
2017-10-22T14:41:51.329Z,93.10
2017-10-22T14:44:19.196Z,92.90
2017-10-22T14:46:47.064Z,92.80
2017-10-22T14:49:14.931Z,92.90
2017-10-22T14:51:42.798Z,92.90
2017-10-22T14:54:10.665Z,92.60
2017-10-22T14:56:38.533Z,93.00
2017-10-22T14:59:06.400Z,92.60
2017-10-22T15:01:34.121Z,92.60
2017-10-22T15:04:01.930Z,92.60
2017-10-22T15:06:29.800Z,92.80
2017-10-22T15:08:57.527Z,93.10
2017-10-22T15:11:25.430Z,93.20
2017-10-22T15:13:53.297Z,93.00
2017-10-22T15:16:21.169Z,93.00
2017-10-22T15:18:49.032Z,92.80
2017-10-22T15:21:16.758Z,93.40
2017-10-22T15:23:44.561Z,93.40
2017-10-22T15:26:12.428Z,93.60
2017-10-22T15:28:40.296Z,93.70
2017-10-22T15:31:08.164Z,93.70
2017-10-22T15:33:36.030Z,94.00
2017-10-22T15:36:03.900Z,94.10
2017-10-22T15:38:31.765Z,94.20
2017-10-22T15:40:59.633Z,94.20
2017-10-22T15:43:27.499Z,94.20
2017-10-22T15:45:55.367Z,94.30
2017-10-22T15:48:23.234Z,94.40
2017-10-22T15:50:51.102Z,94.50
2017-10-22T15:53:18.969Z,94.60
2017-10-22T15:55:46.837Z,94.60
2017-10-22T15:58:14.705Z,94.70
2017-10-22T16:00:42.572Z,94.70
2017-10-22T16:03:10.439Z,94.90
2017-10-22T16:05:38.312Z,95.00
2017-10-22T16:08:06.080Z,95.00
2017-10-22T16:10:33.910Z,94.90
2017-10-22T16:13:01.806Z,94.90
2017-10-22T16:15:29.673Z,94.80
2017-10-22T16:17:57.539Z,94.70
2017-10-22T16:20:25.407Z,94.50
2017-10-22T16:22:53.122Z,94.70
2017-10-22T16:25:20.931Z,94.50
2017-10-22T16:27:48.804Z,94.70
2017-10-22T16:30:16.672Z,94.70
2017-10-22T16:32:44.396Z,94.60
2017-10-22T16:35:12.115Z,94.40
2017-10-22T16:37:39.862Z,94.30
2017-10-22T16:40:07.583Z,94.20
2017-10-22T16:42:35.303Z,94.20
2017-10-22T16:45:03.032Z,94.20
2017-10-22T16:47:30.923Z,94.20
2017-10-22T16:49:58.791Z,94.00
2017-10-22T16:52:26.659Z,94.00
2017-10-22T16:54:54.527Z,94.10
2017-10-22T16:57:22.396Z,94.00
2017-10-22T16:59:50.159Z,94.00
2017-10-22T17:02:18.025Z,94.00
2017-10-22T17:04:45.893Z,94.00
2017-10-22T17:07:13.765Z,94.00
2017-10-22T17:09:41.635Z,93.90
2017-10-22T17:12:09.496Z,94.00
2017-10-22T17:14:37.364Z,94.10
2017-10-22T17:17:05.233Z,94.20
2017-10-22T17:19:33.108Z,94.10
2017-10-22T17:22:00.966Z,94.20
2017-10-22T17:24:28.832Z,94.00
2017-10-22T17:26:56.699Z,93.90
2017-10-22T17:29:24.521Z,93.90
2017-10-22T17:31:52.333Z,93.90
2017-10-22T17:34:20.197Z,94.00
2017-10-22T17:36:48.066Z,94.00
2017-10-22T17:39:15.938Z,94.00
2017-10-22T17:41:43.799Z,94.10
2017-10-22T17:44:11.666Z,94.00
2017-10-22T17:46:39.535Z,94.10
2017-10-22T17:49:07.402Z,94.00
2017-10-22T17:51:35.269Z,94.10
2017-10-22T17:54:03.136Z,94.10
2017-10-22T17:56:31.003Z,94.30
2017-10-22T17:58:58.872Z,94.20
2017-10-22T18:01:26.738Z,94.20
2017-10-22T18:03:54.615Z,94.20
2017-10-22T18:06:22.477Z,94.20
2017-10-22T18:08:50.341Z,94.20
2017-10-22T18:11:18.208Z,94.20
2017-10-22T18:13:46.075Z,94.20
2017-10-22T18:16:13.943Z,94.20
2017-10-22T18:18:41.810Z,94.20
2017-10-22T18:21:09.678Z,94.20
2017-10-22T18:23:37.545Z,94.20
2017-10-22T18:26:05.411Z,94.10
2017-10-22T18:28:33.278Z,94.00
2017-10-22T18:31:01.153Z,94.10
2017-10-22T18:33:29.012Z,94.20
2017-10-22T18:35:56.880Z,94.10
2017-10-22T18:38:24.747Z,94.10
2017-10-22T18:40:52.616Z,94.10
2017-10-22T18:43:20.481Z,94.20
2017-10-22T18:45:49.066Z,94.40
2017-10-22T18:48:16.934Z,94.20
2017-10-22T18:50:45.313Z,94.40
2017-10-22T18:53:13.110Z,94.10
2017-10-22T18:55:40.946Z,94.20
2017-10-22T18:58:08.813Z,94.10
2017-10-22T19:00:36.680Z,94.20
2017-10-22T19:03:04.551Z,94.10
2017-10-22T19:05:32.413Z,93.90
2017-10-22T19:08:00.282Z,94.10
2017-10-22T19:10:28.149Z,93.80
2017-10-22T19:12:55.914Z,93.60
2017-10-22T19:15:23.784Z,93.70
2017-10-22T19:17:51.648Z,93.60
2017-10-22T19:20:19.516Z,93.60
2017-10-22T19:22:48.203Z,93.60
2017-10-22T19:25:16.070Z,93.60
2017-10-22T19:27:43.937Z,93.80
2017-10-22T19:30:11.804Z,93.80
2017-10-22T19:32:39.672Z,93.40
2017-10-22T19:35:07.539Z,93.10
2017-10-22T19:37:35.407Z,93.30
2017-10-22T19:40:03.378Z,93.20
2017-10-22T19:42:31.244Z,93.30
2017-10-22T19:44:59.111Z,93.30
2017-10-22T19:47:26.978Z,93.30
2017-10-22T19:49:54.773Z,93.40
2017-10-22T19:52:22.609Z,93.40
2017-10-22T19:54:50.478Z,93.30
2017-10-22T19:57:18.345Z,93.10
2017-10-22T19:59:46.212Z,93.00
2017-10-22T20:02:14.079Z,92.80
2017-10-22T20:04:41.949Z,92.90
2017-10-22T20:07:09.817Z,92.90
2017-10-22T20:09:37.682Z,92.90
2017-10-22T20:12:05.549Z,93.00
2017-10-22T20:14:33.417Z,93.00
2017-10-22T20:17:01.284Z,93.60
2017-10-22T20:19:29.152Z,93.70
2017-10-22T20:21:57.019Z,93.90
2017-10-22T20:24:24.886Z,94.10
2017-10-22T20:26:52.758Z,94.20
2017-10-22T20:29:20.623Z,94.00
2017-10-22T20:31:48.489Z,94.10
2017-10-22T20:34:16.361Z,93.90
2017-10-22T20:36:44.225Z,93.90
2017-10-22T20:39:12.094Z,93.90
2017-10-22T20:41:39.960Z,94.10
2017-10-22T20:44:07.825Z,94.20
2017-10-22T20:46:35.692Z,94.30
2017-10-22T20:49:03.560Z,94.30
2017-10-22T20:51:31.426Z,94.30
2017-10-22T20:53:59.299Z,94.20
2017-10-22T20:56:27.161Z,94.20
2017-10-22T20:58:55.037Z,94.10
2017-10-22T21:01:22.896Z,94.10
2017-10-22T21:03:50.763Z,94.10
2017-10-22T21:06:18.629Z,94.10
2017-10-22T21:08:46.497Z,94.30
2017-10-22T21:11:14.365Z,94.50
2017-10-22T21:13:42.232Z,94.60
2017-10-22T21:16:10.816Z,94.60
2017-10-22T21:18:38.712Z,94.60
2017-10-22T21:21:06.551Z,94.40
2017-10-22T21:23:35.387Z,94.20
2017-10-22T21:26:03.212Z,94.40
2017-10-22T21:28:31.073Z,94.20
2017-10-22T21:30:58.943Z,94.10
2017-10-22T21:33:26.810Z,93.50
2017-10-22T21:35:54.676Z,93.40
2017-10-22T21:38:22.543Z,94.00
2017-10-22T21:40:50.413Z,93.50
2017-10-22T21:43:18.279Z,93.50
2017-10-22T21:45:46.145Z,93.50
2017-10-22T21:48:14.013Z,93.40
2017-10-22T21:50:41.879Z,93.50
2017-10-22T21:53:09.748Z,93.40
2017-10-22T21:55:37.615Z,93.70
2017-10-22T21:58:05.482Z,93.70
2017-10-22T22:00:33.351Z,93.80
2017-10-22T22:03:01.218Z,93.80
2017-10-22T22:05:29.085Z,93.80
2017-10-22T22:07:56.953Z,93.80
2017-10-22T22:10:24.827Z,93.90
2017-10-22T22:12:52.686Z,93.90
2017-10-22T22:15:20.571Z,93.80
2017-10-22T22:17:49.240Z,93.90
2017-10-22T22:20:17.107Z,93.90
2017-10-22T22:22:44.975Z,94.00
2017-10-22T22:25:12.843Z,93.90
2017-10-22T22:27:40.709Z,93.90
2017-10-22T22:30:08.576Z,94.00
2017-10-22T22:32:36.445Z,94.50
2017-10-22T22:35:04.312Z,94.70
2017-10-22T22:37:32.178Z,94.90
2017-10-22T22:40:00.046Z,95.00
2017-10-22T22:42:27.915Z,95.00
2017-10-22T22:44:55.781Z,95.10
2017-10-22T22:47:23.647Z,95.20
2017-10-22T22:49:51.449Z,95.20
2017-10-22T22:52:20.099Z,95.00
2017-10-22T22:54:47.967Z,95.00
2017-10-22T22:57:15.834Z,94.80
2017-10-22T22:59:43.702Z,94.80
2017-10-22T23:02:11.568Z,94.70
2017-10-22T23:04:39.436Z,94.60
2017-10-22T23:07:07.303Z,94.70
2017-10-22T23:09:35.170Z,94.70
2017-10-22T23:12:03.037Z,94.70
2017-10-22T23:14:30.904Z,94.70
2017-10-22T23:16:58.772Z,94.70
2017-10-22T23:19:26.640Z,94.80
2017-10-22T23:21:54.506Z,94.80
2017-10-22T23:24:22.374Z,94.90
2017-10-22T23:26:50.241Z,94.70
2017-10-22T23:29:18.110Z,94.80
2017-10-22T23:31:45.977Z,94.70
2017-10-22T23:34:13.844Z,94.60
2017-10-22T23:36:41.710Z,94.70
2017-10-22T23:39:09.583Z,94.70
2017-10-22T23:41:37.449Z,94.70
2017-10-22T23:44:05.317Z,94.80
2017-10-22T23:46:33.183Z,94.90
2017-10-22T23:49:01.053Z,95.20
2017-10-22T23:51:28.918Z,95.30
2017-10-22T23:53:56.787Z,95.30
2017-10-22T23:56:24.652Z,95.40
2017-10-22T23:58:52.518Z,95.20
